createdAt,value
2017-09-16T00:00:59.431Z,7.78
2017-09-16T00:03:27.077Z,6.00
2017-09-16T00:05:55.416Z,4.77
2017-09-16T00:08:22.998Z,4.70
2017-09-16T00:10:50.580Z,4.30
2017-09-16T00:13:18.902Z,5.77
2017-09-16T00:15:46.476Z,8.00
2017-09-16T00:18:14.030Z,5.43
2017-09-16T00:20:41.595Z,9.73
2017-09-16T00:23:09.166Z,4.00
2017-09-16T00:25:36.738Z,4.23
2017-09-16T00:28:04.329Z,4.83
2017-09-16T00:30:31.903Z,5.47
2017-09-16T00:33:00.401Z,4.68
2017-09-16T00:35:27.961Z,5.03
2017-09-16T00:37:55.547Z,4.05
2017-09-16T00:40:23.120Z,4.10
2017-09-16T00:42:51.050Z,3.67
2017-09-16T00:45:18.618Z,5.20
2017-09-16T00:47:46.210Z,4.33
2017-09-16T00:50:13.779Z,3.73
2017-09-16T00:52:42.101Z,3.23
2017-09-16T00:55:09.697Z,4.40
2017-09-16T00:57:37.262Z,3.50
2017-09-16T01:00:05.600Z,4.20
2017-09-16T01:02:33.179Z,3.30
2017-09-16T01:05:01.330Z,3.70
2017-09-16T01:07:28.925Z,3.23
2017-09-16T01:09:57.249Z,3.13
2017-09-16T01:12:24.816Z,5.30
2017-09-16T01:14:52.392Z,4.40
2017-09-16T01:17:19.957Z,2.73
2017-09-16T01:19:47.520Z,3.43
2017-09-16T01:22:15.088Z,3.90
2017-09-16T01:24:42.650Z,3.70
2017-09-16T01:27:10.492Z,3.10
2017-09-16T01:29:38.833Z,2.60
2017-09-16T01:32:06.410Z,3.70
2017-09-16T01:34:34.008Z,3.30
2017-09-16T01:37:01.565Z,6.70
2017-09-16T01:39:29.222Z,4.23
2017-09-16T01:41:56.778Z,4.10
2017-09-16T01:44:24.379Z,2.97
2017-09-16T01:46:51.945Z,3.00
2017-09-16T01:49:19.843Z,4.17
2017-09-16T01:51:47.428Z,2.87
2017-09-16T01:54:14.999Z,3.40
2017-09-16T01:56:43.339Z,5.20
2017-09-16T01:59:10.946Z,3.90
2017-09-16T02:01:38.519Z,3.60
2017-09-16T02:04:06.101Z,3.30
2017-09-16T02:06:33.691Z,4.63
2017-09-16T02:09:01.979Z,3.00
2017-09-16T02:11:29.945Z,3.00
2017-09-16T02:13:57.514Z,3.90
2017-09-16T02:16:25.855Z,2.73
2017-09-16T02:18:53.431Z,4.43
2017-09-16T02:21:20.986Z,3.58
2017-09-16T02:23:48.558Z,3.07
2017-09-16T02:26:16.132Z,3.42
2017-09-16T02:28:44.496Z,3.50
2017-09-16T02:31:12.065Z,5.53
2017-09-16T02:33:40.713Z,3.83
2017-09-16T02:36:08.281Z,2.87
2017-09-16T02:38:35.858Z,5.87
2017-09-16T02:41:03.445Z,3.60
2017-09-16T02:43:31.152Z,6.60
2017-09-16T02:45:58.739Z,3.43
2017-09-16T02:48:27.068Z,3.17
2017-09-16T02:50:55.249Z,6.33
2017-09-16T02:53:22.805Z,8.10
2017-09-16T02:55:50.357Z,3.80
2017-09-16T02:58:17.927Z,4.93
2017-09-16T03:00:45.494Z,9.27
2017-09-16T03:03:13.075Z,3.93
2017-09-16T03:05:40.649Z,4.75
2017-09-16T03:08:08.243Z,4.60
2017-09-16T03:10:35.812Z,5.80
2017-09-16T03:13:03.796Z,3.97
2017-09-16T03:15:31.364Z,5.30
2017-09-16T03:17:58.955Z,6.10
2017-09-16T03:20:27.302Z,7.37
2017-09-16T03:22:54.863Z,4.97
2017-09-16T03:25:22.428Z,6.45
2017-09-16T03:27:49.999Z,4.63
2017-09-16T03:30:18.639Z,3.85
2017-09-16T03:32:46.211Z,5.20
2017-09-16T03:35:14.548Z,6.15
2017-09-16T03:37:42.115Z,4.00
2017-09-16T03:40:09.692Z,5.80
2017-09-16T03:42:37.259Z,4.00
2017-09-16T03:45:04.827Z,4.23
2017-09-16T03:47:32.697Z,8.77
2017-09-16T03:50:00.268Z,8.80
2017-09-16T03:52:27.822Z,4.87
2017-09-16T03:54:55.391Z,3.83
2017-09-16T03:57:22.959Z,5.00
2017-09-16T03:59:50.539Z,4.57
2017-09-16T04:02:29.754Z,4.27
2017-09-16T04:04:58.103Z,5.67
2017-09-16T04:07:25.669Z,3.33
2017-09-16T04:09:53.527Z,7.43
2017-09-16T04:12:21.085Z,4.17
2017-09-16T04:14:48.640Z,3.47
2017-09-16T04:17:16.221Z,5.43
2017-09-16T04:19:43.774Z,4.30
2017-09-16T04:22:11.350Z,4.80
2017-09-16T04:24:39.679Z,3.90
2017-09-16T04:27:07.266Z,4.07
2017-09-16T04:29:34.841Z,4.80
2017-09-16T04:32:03.494Z,4.90
2017-09-16T04:34:31.046Z,6.50
2017-09-16T04:36:58.614Z,3.10
2017-09-16T04:39:26.185Z,4.10
2017-09-16T04:41:53.758Z,3.20
2017-09-16T04:44:21.333Z,5.60
2017-09-16T04:46:49.668Z,2.90
2017-09-16T04:49:17.260Z,4.53
2017-09-16T04:51:45.676Z,4.43
2017-09-16T04:54:13.553Z,3.45
2017-09-16T04:56:41.107Z,4.93
2017-09-16T04:59:08.666Z,3.87
2017-09-16T05:01:36.240Z,3.80
2017-09-16T05:04:03.816Z,4.07
2017-09-16T05:06:31.401Z,3.37
2017-09-16T05:08:59.734Z,6.27
2017-09-16T05:11:27.293Z,3.50
2017-09-16T05:13:54.867Z,3.57
2017-09-16T05:16:22.435Z,3.37
2017-09-16T05:18:49.996Z,5.93
2017-09-16T05:21:17.573Z,8.73
2017-09-16T05:23:45.908Z,3.60
2017-09-16T05:26:13.477Z,3.63
2017-09-16T05:28:41.062Z,4.13
2017-09-16T05:31:09.392Z,6.60
2017-09-16T05:33:36.974Z,2.73
2017-09-16T05:36:04.553Z,5.50
2017-09-16T05:38:32.493Z,4.77
2017-09-16T05:41:00.063Z,5.20
2017-09-16T05:43:27.754Z,3.30
2017-09-16T05:45:55.379Z,3.93
2017-09-16T05:48:22.931Z,4.80
2017-09-16T05:50:50.514Z,9.00
2017-09-16T05:53:18.083Z,4.23
2017-09-16T05:55:46.717Z,3.50
2017-09-16T05:58:14.289Z,3.80
2017-09-16T06:00:41.856Z,6.10
2017-09-16T06:03:09.434Z,5.10
2017-09-16T06:05:37.000Z,4.93
2017-09-16T06:08:05.334Z,5.00
2017-09-16T06:10:32.907Z,4.47
2017-09-16T06:13:00.486Z,3.70
2017-09-16T06:15:28.050Z,5.50
2017-09-16T06:17:55.935Z,9.23
2017-09-16T06:20:24.269Z,3.33
2017-09-16T06:22:51.813Z,3.63
2017-09-16T06:25:19.380Z,5.83
2017-09-16T06:27:46.938Z,4.73
2017-09-16T06:30:14.583Z,4.13
2017-09-16T06:32:42.141Z,3.90
2017-09-16T06:35:09.715Z,3.60
2017-09-16T06:37:37.267Z,6.37
2017-09-16T06:40:05.171Z,7.23
2017-09-16T06:42:32.732Z,4.93
2017-09-16T06:45:00.295Z,4.30
2017-09-16T06:47:28.679Z,4.13
2017-09-16T06:49:57.008Z,4.70
2017-09-16T06:52:24.591Z,4.95
2017-09-16T06:54:52.163Z,3.97
2017-09-16T06:57:20.008Z,4.17
2017-09-16T06:59:47.571Z,4.33
2017-09-16T07:02:15.141Z,7.50
2017-09-16T07:04:42.742Z,4.47
2017-09-16T07:07:10.305Z,3.37
2017-09-16T07:09:37.888Z,5.27
2017-09-16T07:12:05.442Z,4.00
2017-09-16T07:14:33.296Z,3.80
2017-09-16T07:17:00.856Z,7.80
2017-09-16T07:19:28.413Z,4.40
2017-09-16T07:21:56.014Z,3.90
2017-09-16T07:24:23.593Z,4.23
2017-09-16T07:26:51.938Z,4.80
2017-09-16T07:29:19.499Z,3.20
2017-09-16T07:31:47.445Z,4.47
2017-09-16T07:34:15.002Z,3.40
2017-09-16T07:36:42.556Z,3.10
2017-09-16T07:39:10.147Z,4.50
2017-09-16T07:41:37.724Z,7.73
2017-09-16T07:44:06.068Z,5.90
2017-09-16T07:46:34.392Z,3.80
2017-09-16T07:49:03.022Z,6.10
2017-09-16T07:51:30.614Z,3.87
2017-09-16T07:53:58.181Z,3.73
2017-09-16T07:56:25.768Z,3.78
2017-09-16T07:58:53.337Z,3.23
2017-09-16T08:01:20.926Z,3.40
2017-09-16T08:03:48.505Z,3.23
2017-09-16T08:06:16.077Z,5.47
2017-09-16T08:08:43.643Z,2.80
2017-09-16T08:11:12.235Z,2.43
2017-09-16T08:13:40.573Z,3.50
2017-09-16T08:16:08.143Z,2.33
2017-09-16T08:18:35.754Z,4.20
2017-09-16T08:21:03.337Z,2.85
2017-09-16T08:23:32.216Z,4.33
2017-09-16T08:25:59.820Z,3.93
2017-09-16T08:28:27.684Z,3.30
2017-09-16T08:30:55.268Z,3.53
2017-09-16T08:33:23.594Z,2.93
2017-09-16T08:35:51.187Z,2.80
2017-09-16T08:38:19.523Z,2.10
2017-09-16T08:40:47.870Z,1.77
2017-09-16T08:43:15.447Z,3.43
2017-09-16T08:45:43.016Z,1.12
2017-09-16T08:48:10.577Z,1.83
2017-09-16T08:50:38.461Z,1.40
2017-09-16T08:53:06.024Z,3.08
2017-09-16T08:55:33.623Z,2.63
2017-09-16T08:58:01.217Z,2.13
2017-09-16T09:00:28.857Z,3.10
2017-09-16T09:02:56.446Z,1.70
2017-09-16T09:05:24.039Z,2.37
2017-09-16T09:07:51.888Z,1.70
2017-09-16T09:10:19.518Z,1.83
2017-09-16T09:12:47.077Z,3.10
2017-09-16T09:15:14.657Z,2.07
2017-09-16T09:17:42.243Z,2.45
2017-09-16T09:20:10.450Z,1.58
2017-09-16T09:22:38.010Z,1.83
2017-09-16T09:25:05.574Z,2.40
2017-09-16T09:27:33.140Z,1.97
2017-09-16T09:30:01.010Z,1.40
2017-09-16T09:32:28.564Z,2.30
2017-09-16T09:34:56.143Z,1.53
2017-09-16T09:37:24.484Z,1.50
2017-09-16T09:39:52.063Z,2.30
2017-09-16T09:42:19.652Z,1.60
2017-09-16T09:44:47.261Z,1.70
2017-09-16T09:47:15.116Z,1.80
2017-09-16T09:49:42.688Z,4.90
2017-09-16T09:52:11.193Z,6.05
2017-09-16T09:54:38.852Z,3.07
2017-09-16T09:57:07.211Z,1.50
2017-09-16T09:59:34.817Z,3.50
2017-09-16T10:02:02.425Z,2.50
2017-09-16T10:04:30.676Z,2.13
2017-09-16T10:07:08.216Z,1.70
2017-09-16T10:09:45.977Z,1.80
2017-09-16T10:12:17.198Z,1.40
2017-09-16T10:14:45.065Z,3.23
2017-09-16T10:17:13.555Z,1.57
2017-09-16T10:19:41.138Z,2.33
2017-09-16T10:22:08.742Z,2.60
2017-09-16T10:24:37.097Z,1.90
2017-09-16T10:27:04.677Z,2.83
2017-09-16T10:29:33.019Z,4.63
2017-09-16T10:32:00.880Z,4.43
2017-09-16T10:34:28.465Z,1.80
2017-09-16T10:36:56.044Z,3.00
2017-09-16T10:39:24.395Z,3.50
2017-09-16T10:41:51.961Z,2.60
2017-09-16T10:44:20.303Z,2.70
2017-09-16T10:46:47.871Z,1.80
2017-09-16T10:49:15.462Z,3.67
2017-09-16T10:51:43.805Z,2.50
2017-09-16T10:54:12.681Z,5.63
2017-09-16T10:56:40.257Z,2.45
2017-09-16T10:59:07.853Z,5.83
2017-09-16T11:01:36.224Z,2.87
2017-09-16T11:04:04.678Z,1.63
2017-09-16T11:06:32.278Z,1.30
2017-09-16T11:09:00.620Z,2.37
2017-09-16T11:11:28.595Z,1.60
2017-09-16T11:13:56.342Z,2.70
2017-09-16T11:16:23.900Z,0.95
2017-09-16T11:18:51.478Z,2.57
2017-09-16T11:21:19.827Z,1.30
2017-09-16T11:23:47.441Z,2.00
2017-09-16T11:26:15.824Z,1.20
2017-09-16T11:28:43.751Z,2.80
2017-09-16T11:31:11.370Z,1.60
2017-09-16T11:33:38.935Z,1.23
2017-09-16T11:36:06.513Z,1.77
2017-09-16T11:38:34.065Z,3.37
2017-09-16T11:41:01.699Z,2.53
2017-09-16T11:43:29.375Z,3.03
2017-09-16T11:45:57.259Z,1.23
2017-09-16T11:48:24.838Z,2.60
2017-09-16T11:50:52.418Z,1.20
2017-09-16T11:53:20.771Z,1.37
2017-09-16T11:55:48.354Z,2.58
2017-09-16T11:58:17.074Z,2.10
2017-09-16T12:00:44.630Z,1.00
2017-09-16T12:03:12.222Z,1.03
2017-09-16T12:05:39.799Z,1.67
2017-09-16T12:08:07.370Z,1.75
2017-09-16T12:10:35.761Z,1.53
2017-09-16T12:13:03.334Z,1.70
2017-09-16T12:15:31.268Z,1.30
2017-09-16T12:17:58.851Z,8.23
2017-09-16T12:20:26.427Z,2.83
2017-09-16T12:22:57.556Z,1.33
2017-09-16T12:25:25.133Z,1.67
2017-09-16T12:27:52.725Z,1.10
2017-09-16T12:30:21.057Z,1.37
2017-09-16T12:32:49.399Z,2.30
2017-09-16T12:35:16.967Z,3.33
2017-09-16T12:37:44.874Z,2.80
2017-09-16T12:40:12.446Z,1.40
2017-09-16T12:42:40.052Z,1.70
2017-09-16T12:45:07.630Z,1.20
2017-09-16T12:47:35.188Z,1.37
2017-09-16T12:50:02.774Z,2.50
2017-09-16T12:52:30.341Z,1.60
2017-09-16T12:54:58.208Z,1.13
2017-09-16T12:57:25.790Z,1.10
2017-09-16T12:59:54.136Z,0.87
2017-09-16T13:02:21.733Z,1.37
2017-09-16T13:04:52.513Z,1.10
2017-09-16T13:07:20.109Z,1.85
2017-09-16T13:09:47.704Z,1.10
2017-09-16T13:12:16.048Z,1.00
2017-09-16T13:14:44.402Z,1.10
2017-09-16T13:17:12.050Z,0.70
2017-09-16T13:19:39.676Z,1.67
2017-09-16T13:22:07.256Z,1.43
2017-09-16T13:24:34.851Z,1.30
2017-09-16T13:27:03.239Z,1.20
2017-09-16T13:29:31.465Z,1.77
2017-09-16T13:31:59.066Z,1.10
2017-09-16T13:34:26.652Z,1.00
2017-09-16T13:36:54.356Z,0.83
2017-09-16T13:39:22.707Z,1.00
2017-09-16T13:41:50.313Z,0.70
2017-09-16T13:44:17.920Z,2.30
2017-09-16T13:46:45.517Z,1.13
2017-09-16T13:49:13.868Z,1.47
2017-09-16T13:51:41.744Z,0.77
2017-09-16T13:54:09.339Z,1.53
2017-09-16T13:56:36.918Z,0.93
2017-09-16T13:59:04.485Z,2.63
2017-09-16T14:01:32.157Z,2.87
2017-09-16T14:03:59.749Z,1.50
2017-09-16T14:06:28.107Z,1.20
2017-09-16T14:08:55.685Z,2.27
2017-09-16T14:11:23.259Z,2.90
2017-09-16T14:13:51.831Z,1.10
2017-09-16T14:16:20.180Z,1.53
2017-09-16T14:18:47.769Z,1.43
2017-09-16T14:21:17.068Z,2.13
2017-09-16T14:23:44.661Z,1.00
2017-09-16T14:26:12.256Z,0.97
2017-09-16T14:28:39.835Z,1.23
2017-09-16T14:31:07.688Z,2.20
2017-09-16T14:33:35.275Z,0.83
2017-09-16T14:36:03.615Z,1.20
2017-09-16T14:38:31.198Z,1.90
2017-09-16T14:40:58.903Z,1.77
2017-09-16T14:43:26.510Z,1.10
2017-09-16T14:45:54.098Z,1.90
2017-09-16T14:48:22.025Z,1.90
2017-09-16T14:50:49.585Z,1.90
2017-09-16T14:53:18.315Z,1.00
2017-09-16T14:55:46.637Z,1.30
2017-09-16T14:58:14.222Z,1.37
2017-09-16T15:00:41.822Z,2.47
2017-09-16T15:03:09.402Z,2.27
2017-09-16T15:05:37.283Z,0.80
2017-09-16T15:08:04.853Z,1.30
2017-09-16T15:10:32.438Z,1.33
2017-09-16T15:13:00.791Z,2.03
2017-09-16T15:15:28.387Z,1.20
2017-09-16T15:17:56.721Z,2.30
2017-09-16T15:20:25.056Z,2.73
2017-09-16T15:22:52.928Z,1.50
2017-09-16T15:25:20.641Z,1.63
2017-09-16T15:27:48.250Z,1.37
2017-09-16T15:30:15.832Z,2.33
2017-09-16T15:32:43.402Z,1.27
2017-09-16T15:35:11.004Z,1.80
2017-09-16T15:37:39.336Z,1.10
2017-09-16T15:40:07.312Z,1.90
2017-09-16T15:42:34.867Z,1.57
2017-09-16T15:45:02.451Z,1.00
2017-09-16T15:47:30.966Z,1.50
2017-09-16T15:49:58.558Z,1.27
2017-09-16T15:52:26.130Z,2.60
2017-09-16T15:54:53.710Z,1.40
2017-09-16T15:57:22.369Z,2.63
2017-09-16T15:59:49.942Z,2.40
2017-09-16T16:02:18.450Z,2.05
2017-09-16T16:04:46.925Z,4.33
2017-09-16T16:07:14.517Z,1.70
2017-09-16T16:09:42.122Z,1.43
2017-09-16T16:12:09.706Z,2.67
2017-09-16T16:14:38.435Z,1.87
2017-09-16T16:17:06.016Z,1.77
2017-09-16T16:19:33.609Z,1.00
2017-09-16T16:22:01.954Z,1.27
2017-09-16T16:24:29.551Z,1.50
2017-09-16T16:26:58.203Z,1.00
2017-09-16T16:29:25.765Z,1.30
2017-09-16T16:31:53.325Z,1.43
2017-09-16T16:34:20.907Z,1.40
2017-09-16T16:36:48.489Z,1.63
2017-09-16T16:39:16.393Z,3.65
2017-09-16T16:41:43.982Z,2.83
2017-09-16T16:44:11.571Z,2.80
2017-09-16T16:46:39.163Z,3.53
2017-09-16T16:49:06.738Z,5.83
2017-09-16T16:51:34.334Z,2.73
2017-09-16T16:54:02.673Z,2.67
2017-09-16T16:56:30.536Z,2.90
2017-09-16T16:58:58.216Z,3.77
2017-09-16T17:01:25.782Z,5.13
2017-09-16T17:03:53.372Z,2.20
2017-09-16T17:06:20.936Z,3.53
2017-09-16T17:08:48.496Z,5.30
2017-09-16T17:11:16.236Z,2.87
2017-09-16T17:13:44.857Z,2.73
2017-09-16T17:16:12.489Z,2.10
2017-09-16T17:18:40.079Z,2.37
2017-09-16T17:21:07.673Z,5.30
2017-09-16T17:23:35.261Z,2.77
2017-09-16T17:26:03.626Z,2.20
2017-09-16T17:28:31.966Z,4.20
2017-09-16T17:30:59.914Z,3.00
2017-09-16T17:33:27.506Z,2.20
2017-09-16T17:35:55.903Z,3.20
2017-09-16T17:38:23.488Z,2.90
2017-09-16T17:40:51.068Z,3.00
2017-09-16T17:43:18.659Z,3.60
2017-09-16T17:45:46.232Z,2.60
2017-09-16T17:48:13.856Z,1.60
2017-09-16T17:50:41.436Z,2.33
2017-09-16T17:53:09.023Z,2.60
2017-09-16T17:55:37.384Z,2.30
2017-09-16T17:58:04.973Z,3.27
2017-09-16T18:00:33.299Z,3.23
2017-09-16T18:03:01.287Z,3.40
2017-09-16T18:05:28.876Z,3.37
2017-09-16T18:07:57.217Z,2.97
2017-09-16T18:10:24.815Z,2.73
2017-09-16T18:12:53.143Z,2.80
2017-09-16T18:15:21.963Z,6.07
2017-09-16T18:17:49.539Z,8.03
2017-09-16T18:20:17.896Z,14.60
2017-09-16T18:22:45.481Z,11.63
2017-09-16T18:25:13.417Z,15.83
2017-09-16T18:27:40.993Z,11.43
2017-09-16T18:30:09.345Z,4.90
2017-09-16T18:32:36.933Z,6.67
2017-09-16T18:35:05.312Z,5.35
2017-09-16T18:37:33.702Z,6.85
2017-09-16T18:40:01.259Z,6.20
2017-09-16T18:42:28.844Z,7.87
2017-09-16T18:44:56.397Z,10.90
2017-09-16T18:47:24.353Z,8.53
2017-09-16T18:49:51.929Z,8.53
2017-09-16T18:52:19.498Z,9.10
2017-09-16T18:54:47.087Z,6.13
2017-09-16T18:57:14.692Z,7.85
2017-09-16T18:59:42.306Z,9.20
2017-09-16T19:02:09.886Z,7.30
2017-09-16T19:04:38.619Z,6.00
2017-09-16T19:07:06.220Z,6.23
2017-09-16T19:09:34.577Z,10.70
2017-09-16T19:12:02.164Z,8.82
2017-09-16T19:14:30.511Z,11.17
2017-09-16T19:16:58.097Z,9.13
2017-09-16T19:19:26.510Z,7.00
2017-09-16T19:21:54.138Z,6.43
2017-09-16T19:24:23.430Z,7.90
2017-09-16T19:26:51.059Z,11.07
2017-09-16T19:29:18.647Z,8.20
2017-09-16T19:31:46.267Z,6.70
2017-09-16T19:34:13.827Z,6.57
2017-09-16T19:36:41.705Z,8.50
2017-09-16T19:39:10.154Z,8.83
2017-09-16T19:41:37.723Z,10.20
2017-09-16T19:44:05.297Z,8.37
2017-09-16T19:46:33.062Z,7.27
2017-09-16T19:49:00.675Z,7.50
2017-09-16T19:51:28.254Z,10.43
2017-09-16T19:53:55.846Z,9.13
2017-09-16T19:56:23.430Z,6.57
2017-09-16T19:58:51.036Z,8.80
2017-09-16T20:01:18.634Z,7.20
2017-09-16T20:03:46.492Z,7.17
2017-09-16T20:06:14.878Z,7.70
2017-09-16T20:08:42.500Z,8.68
2017-09-16T20:11:10.112Z,7.53
2017-09-16T20:13:37.680Z,7.90
2017-09-16T20:16:06.017Z,7.60
2017-09-16T20:18:33.720Z,7.90
2017-09-16T20:21:01.423Z,10.47
2017-09-16T20:23:29.252Z,11.00
2017-09-16T20:25:57.288Z,6.90
2017-09-16T20:28:24.860Z,7.00
2017-09-16T20:30:52.481Z,8.30
2017-09-16T20:33:20.100Z,7.37
2017-09-16T20:35:48.460Z,6.93
2017-09-16T20:38:16.321Z,8.87
2017-09-16T20:40:43.919Z,6.15
2017-09-16T20:43:11.549Z,16.23
2017-09-16T20:45:39.142Z,7.70
2017-09-16T20:48:07.083Z,7.80
2017-09-16T20:50:35.581Z,8.77
2017-09-16T20:53:03.940Z,7.47
2017-09-16T20:55:31.515Z,8.47
2017-09-16T20:57:59.865Z,6.27
2017-09-16T21:00:27.742Z,7.20
2017-09-16T21:02:55.487Z,6.40
2017-09-16T21:05:23.082Z,9.90
2017-09-16T21:07:51.445Z,9.33
2017-09-16T21:10:19.804Z,8.17
2017-09-16T21:12:47.397Z,8.65
2017-09-16T21:15:15.965Z,8.80
2017-09-16T21:17:44.311Z,9.80
2017-09-16T21:20:12.663Z,8.10
2017-09-16T21:22:40.257Z,10.13
2017-09-16T21:25:07.842Z,10.57
2017-09-16T21:27:36.516Z,9.97
2017-09-16T21:30:04.078Z,11.60
2017-09-16T21:32:31.669Z,9.45
2017-09-16T21:34:59.243Z,10.27
2017-09-16T21:37:26.808Z,10.83
2017-09-16T21:39:54.571Z,10.77
2017-09-16T21:42:22.129Z,9.67
2017-09-16T21:44:49.711Z,8.93
2017-09-16T21:47:17.349Z,9.90
2017-09-16T21:49:44.920Z,9.00
2017-09-16T21:52:13.253Z,6.30
2017-09-16T21:54:40.811Z,7.30
2017-09-16T21:57:08.394Z,7.80
2017-09-16T21:59:36.126Z,8.18
2017-09-16T22:02:04.489Z,17.60
2017-09-16T22:04:32.051Z,16.57
2017-09-16T22:06:59.620Z,19.40
2017-09-16T22:09:27.943Z,23.10
2017-09-16T22:11:56.383Z,10.98
2017-09-16T22:14:25.614Z,15.97
2017-09-16T22:16:53.491Z,12.93
2017-09-16T22:19:21.057Z,9.43
2017-09-16T22:21:48.623Z,9.50
2017-09-16T22:24:16.245Z,9.00
2017-09-16T22:26:43.809Z,9.40
2017-09-16T22:29:11.387Z,10.07
2017-09-16T22:31:38.969Z,9.70
2017-09-16T22:34:06.542Z,11.87
2017-09-16T22:36:34.892Z,11.70
2017-09-16T22:39:02.856Z,11.77
2017-09-16T22:41:30.423Z,9.17
2017-09-16T22:43:58.771Z,7.80
2017-09-16T22:46:26.577Z,10.13
2017-09-16T22:48:54.165Z,10.00
2017-09-16T22:51:21.739Z,11.17
2017-09-16T22:53:49.444Z,8.83
2017-09-16T22:56:17.785Z,8.83
2017-09-16T22:58:45.417Z,9.93
2017-09-16T23:01:13.315Z,8.20
2017-09-16T23:03:40.872Z,9.20
2017-09-16T23:06:08.444Z,8.17
2017-09-16T23:08:36.044Z,8.10
2017-09-16T23:11:03.618Z,8.30
2017-09-16T23:13:31.563Z,8.10
2017-09-16T23:15:59.140Z,8.47
2017-09-16T23:18:27.857Z,9.20
2017-09-16T23:20:56.222Z,8.00
2017-09-16T23:23:23.801Z,9.20
2017-09-16T23:25:51.374Z,7.50
2017-09-16T23:28:19.320Z,10.83
2017-09-16T23:30:46.886Z,7.97
2017-09-16T23:33:14.446Z,8.17
2017-09-16T23:35:42.012Z,7.57
2017-09-16T23:38:09.564Z,11.73
2017-09-16T23:40:37.225Z,8.50
2017-09-16T23:43:04.786Z,13.80
2017-09-16T23:45:32.431Z,10.23
2017-09-16T23:48:00.008Z,8.03
2017-09-16T23:50:28.078Z,6.57
2017-09-16T23:52:55.641Z,7.87
2017-09-16T23:55:23.210Z,9.20
2017-09-16T23:57:50.789Z,8.03
